Time;durP1;ratioP1;P1;durP2;ratioP2;P2;SDS_P1;SDS_P2;PMS_P1;PMS_P2;Temp;Humidity;BMP_temperature;BMP_pressure;BME280_temperature;BME280_humidity;BME280_pressure;Samples;Min_cycle;Max_cycle;Signal;HPM_P1;HPM_P2
2024/01/25 00:01:46;;;;;;;0.80;0.68;;;8.40;99.90;;;;;;5063378;28;20681;-78
2024/01/25 00:04:12;;;;;;;3.72;1.02;;;8.50;99.90;;;;;;5063739;28;20223;-78
2024/01/25 00:06:39;;;;;;;0.50;0.40;;;8.50;99.90;;;;;;5064702;28;20245;-80
2024/01/25 00:09:06;;;;;;;0.93;0.93;;;8.50;99.90;;;;;;5064124;28;20195;-78
2024/01/25 00:11:33;;;;;;;0.50;0.40;;;8.40;99.90;;;;;;5055574;28;20207;-79
2024/01/25 00:14:02;;;;;;;3.50;2.40;;;8.40;99.90;;;;;;5064701;28;20606;-79
2024/01/25 00:16:29;;;;;;;0.50;0.40;;;8.40;99.90;;;;;;5065639;28;20211;-78
2024/01/25 00:18:55;;;;;;;0.50;0.40;;;8.40;99.90;;;;;;5066071;28;20332;-79
2024/01/25 00:21:22;;;;;;;1.02;1.02;;;8.40;99.90;;;;;;5065329;28;20203;-77
2024/01/25 00:23:49;;;;;;;0.50;0.40;;;8.30;99.90;;;;;;5065429;28;20206;-78
2024/01/25 00:26:16;;;;;;;0.50;0.40;;;8.30;99.90;;;;;;5065251;28;20249;-76
2024/01/25 00:28:43;;;;;;;16.20;1.35;;;8.40;99.90;;;;;;5065416;28;20198;-79
2024/01/25 00:31:12;;;;;;;0.50;0.40;;;8.40;99.90;;;;;;5064643;28;20195;-78
2024/01/25 00:33:39;;;;;;;0.50;0.40;;;8.40;99.90;;;;;;5064515;28;20257;-78
2024/01/25 00:36:07;;;;;;;1.55;1.45;;;8.40;99.90;;;;;;5064103;28;20211;-79
2024/01/25 00:38:34;;;;;;;1.15;1.15;;;8.40;99.90;;;;;;5066025;28;20199;-79
2024/01/25 00:41:02;;;;;;;0.50;0.40;;;8.40;99.90;;;;;;5065455;28;20187;-78
2024/01/25 00:43:29;;;;;;;0.50;0.40;;;8.40;99.90;;;;;;5065112;28;20191;-78
2024/01/25 00:45:56;;;;;;;0.50;0.40;;;8.40;99.90;;;;;;5064969;28;20245;-78
2024/01/25 00:48:25;;;;;;;0.50;0.40;;;8.40;99.90;;;;;;5064874;28;20253;-78
2024/01/25 00:50:53;;;;;;;0.50;0.40;;;8.40;99.90;;;;;;5065161;28;20195;-78
2024/01/25 00:53:21;;;;;;;0.50;0.40;;;8.30;99.90;;;;;;5064413;28;20195;-78
2024/01/25 00:55:48;;;;;;;0.50;0.40;;;8.30;99.90;;;;;;5062657;28;20670;-79
2024/01/25 00:58:15;;;;;;;0.50;0.40;;;8.20;99.90;;;;;;5062783;28;20280;-78
2024/01/25 01:00:43;;;;;;;3.67;1.80;;;8.10;99.90;;;;;;5062674;28;20249;-78
2024/01/25 01:03:11;;;;;;;0.93;0.60;;;8.10;99.90;;;;;;5061881;28;20609;-78
2024/01/25 01:05:40;;;;;;;0.50;0.40;;;8.00;99.90;;;;;;5062500;28;20211;-79
2024/01/25 01:08:08;;;;;;;2.45;1.85;;;7.90;99.90;;;;;;5062385;28;20198;-79
2024/01/25 01:10:35;;;;;;;1.45;1.02;;;7.80;99.90;;;;;;5061948;28;20187;-78
2024/01/25 01:13:02;;;;;;;1.30;1.23;;;7.70;99.90;;;;;;5062061;28;20492;-78
2024/01/25 01:15:29;;;;;;;0.60;0.60;;;7.60;99.90;;;;;;5062539;28;20337;-77
2024/01/25 01:17:55;;;;;;;0.50;0.40;;;7.60;99.90;;;;;;5062023;28;20191;-79
2024/01/25 01:20:22;;;;;;;0.50;0.40;;;7.50;99.90;;;;;;5062242;28;20195;-76
2024/01/25 01:22:53;;;;;;;0.90;0.68;;;7.50;99.90;;;;;;5061982;28;20191;-79
2024/01/25 01:25:20;;;;;;;0.50;0.40;;;7.40;99.90;;;;;;5061364;28;20227;-78
2024/01/25 01:27:47;;;;;;;0.50;0.50;;;7.40;99.90;;;;;;5062711;28;20214;-78
2024/01/25 01:30:14;;;;;;;0.70;0.60;;;7.30;99.90;;;;;;5062623;28;20203;-78
2024/01/25 01:32:41;;;;;;;0.98;0.98;;;7.30;99.90;;;;;;5062136;28;20646;-78
2024/01/25 01:35:17;;;;;;;0.50;0.40;;;7.20;99.90;;;;;;5062399;28;20187;-78
2024/01/25 01:37:44;;;;;;;0.50;0.40;;;7.20;99.90;;;;;;5061857;28;20195;-79
2024/01/25 01:40:13;;;;;;;0.50;0.40;;;7.20;99.90;;;;;;5061485;28;20195;-78
2024/01/25 01:42:40;;;;;;;1.30;0.82;;;7.10;99.90;;;;;;5060768;28;20241;-79
2024/01/25 01:45:08;;;;;;;0.50;0.40;;;7.20;99.90;;;;;;5062096;28;20242;-78
2024/01/25 01:47:35;;;;;;;0.50;0.40;;;7.20;99.90;;;;;;5061156;28;20265;-79
2024/01/25 01:50:02;;;;;;;2.15;0.70;;;7.30;99.90;;;;;;5062136;28;20245;-78
2024/01/25 01:52:30;;;;;;;0.50;0.40;;;7.30;99.90;;;;;;5062454;28;20207;-78
2024/01/25 01:54:57;;;;;;;5.28;0.93;;;7.40;99.90;;;;;;5062480;28;20188;-79
2024/01/25 01:57:26;;;;;;;0.50;0.40;;;7.40;99.90;;;;;;5063951;28;20272;-78
2024/01/25 01:59:53;;;;;;;0.50;0.40;;;7.40;99.90;;;;;;5064584;28;20684;-78
2024/01/25 02:02:20;;;;;;;0.50;0.40;;;7.50;99.90;;;;;;5064361;28;20195;-78
2024/01/25 02:04:47;;;;;;;0.60;0.60;;;7.50;99.90;;;;;;5064784;28;20203;-78
2024/01/25 02:07:14;;;;;;;0.50;0.40;;;7.50;99.90;;;;;;5065724;28;20219;-79
2024/01/25 02:09:41;;;;;;;0.55;0.52;;;7.50;99.90;;;;;;5064962;28;20635;-78
2024/01/25 02:12:08;;;;;;;0.50;0.40;;;7.60;99.90;;;;;;5065321;28;20626;-79
2024/01/25 02:14:36;;;;;;;1.00;0.73;;;7.60;99.90;;;;;;5065157;28;20224;-78
2024/01/25 02:17:03;;;;;;;0.50;0.40;;;7.60;99.90;;;;;;5065527;28;20223;-79
2024/01/25 02:19:30;;;;;;;0.50;0.40;;;7.60;99.90;;;;;;5064726;28;20200;-79
2024/01/25 02:21:59;;;;;;;1.23;1.13;;;7.60;99.90;;;;;;5065743;28;20650;-79
2024/01/25 02:24:28;;;;;;;1.35;0.80;;;7.60;99.90;;;;;;5064868;28;20207;-78
2024/01/25 02:26:55;;;;;;;0.50;0.40;;;7.60;99.90;;;;;;5065433;28;20288;-79
2024/01/25 02:29:22;;;;;;;0.50;0.40;;;7.70;99.90;;;;;;5064531;28;20230;-76
2024/01/25 02:31:49;;;;;;;0.50;0.40;;;7.60;99.90;;;;;;5064784;28;20195;-79
2024/01/25 02:34:16;;;;;;;0.85;0.85;;;7.50;99.90;;;;;;5065131;28;20253;-79
2024/01/25 02:36:43;;;;;;;1.35;1.25;;;7.50;99.90;;;;;;5065407;28;20763;-79
2024/01/25 02:39:10;;;;;;;0.50;0.40;;;7.40;99.90;;;;;;5064860;28;20191;-78
2024/01/25 02:41:38;;;;;;;0.50;0.40;;;7.40;99.90;;;;;;5064711;28;20191;-78
2024/01/25 02:44:05;;;;;;;0.50;0.40;;;7.30;99.90;;;;;;5064753;28;20195;-78
2024/01/25 02:46:32;;;;;;;0.50;0.40;;;7.20;99.90;;;;;;5064794;28;20269;-78
2024/01/25 02:48:59;;;;;;;0.50;0.40;;;7.10;99.90;;;;;;5064504;28;20192;-78
2024/01/25 02:51:26;;;;;;;0.50;0.40;;;7.00;99.90;;;;;;5064529;28;20253;-78
2024/01/25 02:53:53;;;;;;;0.65;0.65;;;7.00;99.90;;;;;;5064096;28;20221;-78
2024/01/25 02:56:20;;;;;;;2.17;2.05;;;6.90;99.90;;;;;;5063936;28;20221;-78
2024/01/25 02:58:47;;;;;;;1.13;1.02;;;6.80;99.90;;;;;;5064160;28;20245;-78
2024/01/25 03:01:14;;;;;;;2.67;0.80;;;6.80;99.90;;;;;;5064506;28;20237;-78
2024/01/25 03:03:41;;;;;;;0.50;0.50;;;6.70;99.90;;;;;;5064173;28;20199;-78
2024/01/25 03:06:09;;;;;;;0.52;0.52;;;6.70;99.90;;;;;;5063999;28;20226;-79
2024/01/25 03:08:35;;;;;;;0.50;0.50;;;6.60;99.90;;;;;;5063086;28;20233;-79
2024/01/25 03:11:04;;;;;;;0.50;0.50;;;6.60;99.90;;;;;;5064491;28;20191;-78
2024/01/25 03:13:31;;;;;;;0.50;0.40;;;6.50;99.90;;;;;;5063612;28;20686;-78
2024/01/25 03:16:00;;;;;;;0.50;0.40;;;6.50;99.90;;;;;;5064258;28;20586;-78
2024/01/25 03:18:27;;;;;;;0.50;0.40;;;6.40;99.90;;;;;;5063454;28;20187;-78
2024/01/25 03:20:54;;;;;;;0.60;0.60;;;6.40;99.90;;;;;;5064325;28;20248;-79
2024/01/25 03:23:20;;;;;;;0.60;0.60;;;6.40;99.90;;;;;;5063784;28;20193;-78
2024/01/25 03:25:47;;;;;;;0.50;0.40;;;6.40;99.90;;;;;;5063207;28;20223;-78
2024/01/25 03:28:16;;;;;;;0.50;0.40;;;6.30;99.90;;;;;;5062957;28;20202;-79
2024/01/25 03:30:43;;;;;;;0.50;0.40;;;6.30;99.90;;;;;;5063766;28;20302;-79
2024/01/25 03:33:11;;;;;;;0.50;0.40;;;6.20;99.90;;;;;;5063029;28;20659;-78
2024/01/25 03:35:38;;;;;;;0.50;0.40;;;6.20;99.90;;;;;;5061993;28;20215;-78
2024/01/25 03:38:05;;;;;;;0.50;0.40;;;6.20;99.90;;;;;;5062529;28;20199;-78
2024/01/25 03:40:33;;;;;;;5.28;1.48;;;6.10;99.90;;;;;;5061507;28;20196;-78
2024/01/25 03:43:00;;;;;;;0.90;0.90;;;6.10;99.90;;;;;;5061726;28;20191;-78
2024/01/25 03:45:26;;;;;;;0.50;0.40;;;6.10;99.90;;;;;;5062818;28;20215;-78
2024/01/25 03:47:53;;;;;;;4.30;0.80;;;6.00;99.90;;;;;;5054634;28;20214;-78
2024/01/25 03:50:22;;;;;;;0.50;0.40;;;5.90;99.90;;;;;;5063295;28;20222;-79
2024/01/25 03:52:49;;;;;;;0.50;0.40;;;5.90;99.90;;;;;;5061629;28;20683;-78
2024/01/25 03:55:15;;;;;;;0.50;0.40;;;5.90;99.90;;;;;;5062294;28;20183;-79
2024/01/25 03:57:45;;;;;;;0.50;0.40;;;5.90;99.90;;;;;;5062131;28;20267;-78
2024/01/25 04:00:13;;;;;;;0.50;0.50;;;5.90;99.90;;;;;;5062745;28;20635;-78
2024/01/25 04:02:39;;;;;;;1.13;1.13;;;5.90;99.90;;;;;;5062735;28;20624;-78
2024/01/25 04:05:07;;;;;;;0.50;0.50;;;5.80;99.90;;;;;;5117700;22;20211;-80
2024/01/25 04:07:36;;;;;;;0.50;0.40;;;5.80;99.90;;;;;;5055376;28;20203;-80
2024/01/25 04:10:04;;;;;;;1.35;1.25;;;5.80;99.90;;;;;;5060508;28;20253;-80
2024/01/25 04:12:31;;;;;;;0.50;0.40;;;5.80;99.90;;;;;;5053765;28;20202;-79
2024/01/25 04:14:58;;;;;;;0.50;0.40;;;5.80;99.90;;;;;;5061623;28;20214;-80
2024/01/25 04:17:25;;;;;;;0.60;0.60;;;5.70;99.90;;;;;;5073936;28;20672;-80
2024/01/25 04:19:52;;;;;;;0.50;0.40;;;5.70;99.90;;;;;;5072795;28;20198;-80
2024/01/25 04:22:19;;;;;;;1.58;0.70;;;5.70;99.90;;;;;;5073999;28;20272;-79
2024/01/25 04:24:49;;;;;;;0.50;0.40;;;5.80;99.90;;;;;;5074050;28;20295;-80
2024/01/25 04:27:16;;;;;;;0.50;0.40;;;5.80;99.90;;;;;;5073562;28;20195;-80
2024/01/25 04:29:44;;;;;;;0.50;0.40;;;5.80;99.90;;;;;;5073277;28;20191;-81
2024/01/25 04:32:11;;;;;;;0.50;0.40;;;5.80;99.90;;;;;;5073411;28;20202;-80
2024/01/25 04:34:38;;;;;;;0.50;0.40;;;5.70;99.90;;;;;;5073700;28;20214;-80
2024/01/25 04:37:05;;;;;;;0.50;0.40;;;5.70;99.90;;;;;;5073662;28;20252;-79
2024/01/25 04:39:32;;;;;;;0.50;0.40;;;5.70;99.90;;;;;;5073958;28;20682;-79
2024/01/25 04:42:00;;;;;;;0.50;0.40;;;5.70;99.90;;;;;;5065505;28;20190;-80
2024/01/25 04:44:27;;;;;;;0.80;0.80;;;5.60;99.90;;;;;;5073451;28;20222;-80
2024/01/25 04:46:54;;;;;;;1.40;0.95;;;5.60;99.90;;;;;;5072815;28;20689;-80
2024/01/25 04:49:21;;;;;;;0.50;0.40;;;5.60;99.90;;;;;;5073407;28;20197;-80
2024/01/25 04:51:48;;;;;;;0.50;0.40;;;5.60;99.90;;;;;;5072782;28;20202;-80
2024/01/25 04:54:15;;;;;;;0.50;0.40;;;5.50;99.90;;;;;;5073153;28;20343;-79
2024/01/25 04:56:42;;;;;;;0.50;0.40;;;5.50;99.90;;;;;;5073435;28;20221;-80
2024/01/25 04:59:10;;;;;;;0.50;0.40;;;5.50;99.90;;;;;;5073672;28;20285;-78
2024/01/25 05:01:37;;;;;;;1.02;0.55;;;5.40;99.90;;;;;;5072878;28;20198;-79
2024/01/25 05:04:05;;;;;;;0.50;0.40;;;5.40;99.90;;;;;;5073201;28;20243;-79
2024/01/25 05:06:32;;;;;;;0.50;0.40;;;5.40;99.90;;;;;;5072971;28;20215;-80
2024/01/25 05:08:59;;;;;;;0.50;0.40;;;5.30;99.90;;;;;;5072896;28;20256;-79
2024/01/25 05:11:26;;;;;;;2.00;1.90;;;5.30;99.90;;;;;;5072981;28;20738;-80
2024/01/25 05:13:53;;;;;;;0.52;0.50;;;5.30;99.90;;;;;;5072553;28;20206;-80
2024/01/25 05:16:21;;;;;;;0.80;0.70;;;5.30;99.90;;;;;;5073478;28;20275;-79
2024/01/25 05:18:48;;;;;;;0.50;0.40;;;5.30;99.90;;;;;;5073672;28;20194;-79
2024/01/25 05:21:15;;;;;;;1.50;0.80;;;5.30;99.90;;;;;;5073724;28;20198;-78
2024/01/25 05:23:42;;;;;;;0.75;0.75;;;5.20;99.90;;;;;;5073585;28;20194;-79
2024/01/25 05:26:09;;;;;;;0.50;0.40;;;5.20;99.90;;;;;;5074014;28;20214;-79
2024/01/25 05:28:36;;;;;;;0.50;0.40;;;5.20;99.90;;;;;;5073986;28;20217;-79
2024/01/25 05:31:03;;;;;;;4.22;1.42;;;5.20;99.90;;;;;;5065448;28;20613;-78
2024/01/25 05:33:31;;;;;;;0.50;0.40;;;5.20;99.90;;;;;;5078262;28;20307;-79
2024/01/25 05:35:58;;;;;;;0.50;0.40;;;5.20;99.90;;;;;;5077785;28;20218;-80
2024/01/25 05:38:25;;;;;;;0.50;0.40;;;5.10;99.90;;;;;;5077579;28;20248;-79
2024/01/25 05:40:52;;;;;;;1.15;1.10;;;5.10;99.90;;;;;;5078138;28;20624;-80
2024/01/25 05:43:20;;;;;;;0.50;0.40;;;5.10;99.90;;;;;;5077097;28;20612;-78
2024/01/25 05:45:47;;;;;;;0.50;0.40;;;5.00;99.90;;;;;;5077377;28;20218;-78
2024/01/25 05:48:14;;;;;;;0.50;0.40;;;5.00;99.90;;;;;;5077552;28;20199;-80
2024/01/25 05:50:42;;;;;;;0.50;0.40;;;5.00;99.90;;;;;;5077829;28;20267;-79
2024/01/25 05:53:09;;;;;;;0.50;0.40;;;5.00;99.90;;;;;;5077537;28;20199;-79
2024/01/25 05:55:36;;;;;;;1.25;1.15;;;5.00;99.90;;;;;;5077317;28;20577;-78
2024/01/25 05:58:03;;;;;;;0.50;0.40;;;5.00;99.90;;;;;;5077493;28;20195;-78
2024/01/25 06:00:30;;;;;;;0.50;0.40;;;4.90;99.90;;;;;;5076960;28;20340;-79
2024/01/25 06:02:57;;;;;;;0.50;0.40;;;4.90;99.90;;;;;;5076890;28;20252;-79
2024/01/25 06:05:25;;;;;;;0.50;0.40;;;4.90;99.90;;;;;;5077000;28;20311;-78
2024/01/25 06:07:53;;;;;;;0.50;0.40;;;4.90;99.90;;;;;;5076837;28;20672;-79
2024/01/25 06:10:20;;;;;;;0.50;0.40;;;4.90;99.90;;;;;;5077109;28;20202;-78
2024/01/25 06:12:47;;;;;;;0.50;0.40;;;4.90;99.90;;;;;;5076592;28;20642;-79
2024/01/25 06:15:14;;;;;;;0.50;0.40;;;4.90;99.90;;;;;;5077487;28;20218;-79
2024/01/25 06:17:41;;;;;;;0.50;0.40;;;4.90;99.90;;;;;;5076457;28;20248;-79
2024/01/25 06:20:10;;;;;;;0.50;0.40;;;4.90;99.90;;;;;;5070368;28;20219;-78
2024/01/25 06:22:37;;;;;;;0.50;0.40;;;4.90;99.90;;;;;;5076848;28;20209;-78
2024/01/25 06:25:06;;;;;;;0.50;0.40;;;4.80;99.90;;;;;;5076087;28;20240;-78
2024/01/25 06:27:33;;;;;;;0.73;0.73;;;4.80;99.90;;;;;;5076885;28;20685;-80
2024/01/25 06:30:00;;;;;;;0.50;0.40;;;4.80;99.90;;;;;;5076386;28;20203;-79
2024/01/25 06:32:27;;;;;;;10.93;1.90;;;4.80;99.90;;;;;;5076408;28;20643;-79
2024/01/25 06:34:54;;;;;;;0.50;0.40;;;4.80;99.90;;;;;;5076968;28;20264;-79
2024/01/25 06:37:21;;;;;;;0.85;0.70;;;4.80;99.90;;;;;;5076727;28;20199;-80
2024/01/25 06:39:48;;;;;;;0.50;0.40;;;4.80;99.90;;;;;;5076457;28;20275;-79
2024/01/25 06:42:17;;;;;;;0.50;0.40;;;4.70;99.90;;;;;;5076433;28;20190;-77
2024/01/25 06:44:44;;;;;;;0.50;0.40;;;4.80;99.90;;;;;;5077046;28;20417;-80
2024/01/25 06:47:11;;;;;;;0.50;0.40;;;4.80;99.90;;;;;;5068755;28;20214;-80
2024/01/25 06:49:38;;;;;;;1.30;1.30;;;4.80;99.90;;;;;;5076065;28;20252;-79
2024/01/25 06:52:05;;;;;;;0.50;0.40;;;4.90;99.90;;;;;;5076318;28;20214;-80
2024/01/25 06:54:32;;;;;;;0.50;0.50;;;4.90;99.90;;;;;;5076905;28;20574;-80
2024/01/25 06:56:59;;;;;;;0.60;0.50;;;4.90;99.90;;;;;;5076455;28;20194;-79
2024/01/25 06:59:28;;;;;;;0.98;0.68;;;4.90;99.90;;;;;;5076532;28;20252;-80
2024/01/25 07:01:55;;;;;;;0.50;0.45;;;5.00;99.90;;;;;;5076750;28;20206;-80
2024/01/25 07:04:22;;;;;;;0.77;0.50;;;4.90;99.90;;;;;;5076602;28;20194;-80
2024/01/25 07:06:49;;;;;;;2.55;1.13;;;4.90;99.90;;;;;;5077449;28;20215;-80
2024/01/25 07:09:16;;;;;;;2.17;1.65;;;4.90;99.90;;;;;;5077289;28;20224;-80
2024/01/25 07:11:43;;;;;;;9.43;1.63;;;4.90;99.90;;;;;;5076940;28;20205;-79
2024/01/25 07:14:10;;;;;;;0.77;0.63;;;5.00;99.90;;;;;;5076620;28;20191;-80
2024/01/25 07:16:38;;;;;;;0.50;0.40;;;5.00;99.90;;;;;;5077525;28;20631;-80
2024/01/25 07:19:05;;;;;;;2.97;2.67;;;5.00;99.90;;;;;;5077405;28;20259;-80
2024/01/25 07:21:32;;;;;;;0.50;0.40;;;5.00;99.90;;;;;;5078032;28;20202;-80
2024/01/25 07:24:00;;;;;;;0.50;0.50;;;4.90;99.90;;;;;;5077365;28;20194;-81
2024/01/25 07:26:27;;;;;;;0.70;0.70;;;4.90;99.90;;;;;;5077088;28;20218;-80
2024/01/25 07:28:57;;;;;;;0.50;0.40;;;4.90;99.90;;;;;;5077118;28;20547;-81
2024/01/25 07:31:25;;;;;;;0.45;0.40;;;4.90;99.90;;;;;;5078334;28;20199;-80
2024/01/25 07:33:53;;;;;;;0.40;0.40;;;4.90;99.90;;;;;;5080822;28;20210;-79
2024/01/25 07:36:20;;;;;;;0.50;0.50;;;4.90;99.90;;;;;;5083991;28;20237;-81
2024/01/25 07:38:48;;;;;;;1.88;1.48;;;4.90;99.90;;;;;;5082536;28;20226;-81
2024/01/25 07:41:15;;;;;;;3.15;1.10;;;5.00;99.90;;;;;;5075811;28;20227;-78
2024/01/25 07:43:42;;;;;;;1.13;1.02;;;5.00;99.90;;;;;;5076099;28;20236;-80
2024/01/25 07:46:10;;;;;;;7.25;1.67;;;5.00;99.90;;;;;;5075840;28;20305;-81
2024/01/25 07:48:37;;;;;;;5.15;1.40;;;5.00;99.90;;;;;;5075789;28;20203;-80
2024/01/25 07:51:12;;;;;;;3.42;2.78;;;5.00;99.90;;;;;;5075186;28;20199;-79
2024/01/25 07:53:39;;;;;;;27.75;1.40;;;5.10;99.90;;;;;;5076055;28;20496;-79
2024/01/25 07:56:07;;;;;;;0.40;0.40;;;5.10;99.90;;;;;;5075284;28;20211;-78
2024/01/25 07:58:36;;;;;;;1.73;1.65;;;5.10;99.90;;;;;;5075454;28;20252;-78
2024/01/25 08:01:05;;;;;;;0.40;0.40;;;5.20;99.90;;;;;;5075909;28;20643;-77
2024/01/25 08:03:33;;;;;;;1.38;1.27;;;5.20;99.90;;;;;;5075664;28;20202;-79
2024/01/25 08:06:00;;;;;;;1.33;0.50;;;5.20;99.90;;;;;;5075083;28;20218;-79
2024/01/25 08:08:28;;;;;;;1.13;1.13;;;5.20;99.90;;;;;;5074937;28;20198;-79
2024/01/25 08:10:55;;;;;;;5.07;3.05;;;5.30;99.90;;;;;;5075907;28;20735;-80
2024/01/25 08:13:22;;;;;;;1.15;1.15;;;5.30;99.90;;;;;;5075912;28;20213;-77
2024/01/25 08:15:50;;;;;;;4.20;1.85;;;5.40;99.90;;;;;;5074469;28;20624;-78
2024/01/25 08:18:18;;;;;;;1.55;1.42;;;5.30;99.90;;;;;;5074170;28;20194;-80
2024/01/25 08:20:46;;;;;;;1.25;0.73;;;5.30;99.90;;;;;;5074212;28;20200;-79
2024/01/25 08:23:14;;;;;;;3.45;0.95;;;5.40;99.90;;;;;;5074481;28;20213;-79
2024/01/25 08:25:42;;;;;;;0.60;0.60;;;5.40;99.90;;;;;;5074630;28;20218;-79
2024/01/25 08:28:09;;;;;;;2.05;1.95;;;5.40;99.90;;;;;;5074259;28;20194;-79
2024/01/25 08:30:36;;;;;;;19.50;2.88;;;5.40;99.90;;;;;;5074755;28;20198;-79
2024/01/25 08:33:04;;;;;;;1.98;1.77;;;5.40;99.90;;;;;;5083978;28;20212;-80
2024/01/25 08:35:31;;;;;;;20.00;4.72;;;5.40;99.90;;;;;;5082697;28;20218;-79
2024/01/25 08:37:58;;;;;;;1.48;1.33;;;5.50;99.90;;;;;;5084310;28;20225;-80
2024/01/25 08:40:25;;;;;;;3.00;2.80;;;5.50;99.90;;;;;;5083940;28;20201;-79
2024/01/25 08:42:53;;;;;;;1.63;1.20;;;5.50;99.90;;;;;;5075520;28;20224;-79
2024/01/25 08:45:20;;;;;;;0.50;0.50;;;5.60;99.90;;;;;;5074496;28;20268;-80
2024/01/25 08:47:49;;;;;;;1.20;1.02;;;5.60;99.90;;;;;;5074872;28;20221;-79
2024/01/25 08:50:16;;;;;;;0.50;0.50;;;5.70;99.90;;;;;;5074240;28;20324;-80
2024/01/25 08:52:43;;;;;;;6.15;3.65;;;5.80;99.90;;;;;;5073301;28;20256;-79
2024/01/25 08:55:10;;;;;;;15.63;4.93;;;5.90;99.90;;;;;;5074335;28;20217;-78
2024/01/25 08:57:37;;;;;;;0.88;0.88;;;6.00;99.90;;;;;;5075548;28;20224;-80
2024/01/25 09:00:10;;;;;;;1.00;0.63;;;6.00;99.90;;;;;;5074511;28;20195;-80
2024/01/25 09:02:37;;;;;;;1.30;1.13;;;6.20;99.90;;;;;;5075721;28;20198;-79
2024/01/25 09:05:05;;;;;;;3.53;1.02;;;6.20;99.90;;;;;;5075323;28;20222;-79
2024/01/25 09:07:32;;;;;;;4.93;2.45;;;6.30;99.90;;;;;;5076006;28;20218;-79
2024/01/25 09:09:59;;;;;;;0.73;0.73;;;6.40;99.90;;;;;;5078898;28;20203;-78
2024/01/25 09:12:25;;;;;;;7.65;1.95;;;6.60;99.90;;;;;;5077938;28;20190;-78
2024/01/25 09:14:51;;;;;;;4.10;3.00;;;6.80;99.90;;;;;;5078247;28;20226;-79
2024/01/25 09:17:22;;;;;;;1.17;1.10;;;7.00;99.90;;;;;;5077709;28;20194;-78
2024/01/25 09:19:50;;;;;;;3.55;3.33;;;7.10;99.90;;;;;;5078773;28;20506;-77
2024/01/25 09:22:19;;;;;;;2.97;2.67;;;7.20;99.90;;;;;;5077464;28;20202;-76
2024/01/25 09:24:46;;;;;;;2.45;2.15;;;7.20;99.90;;;;;;5077445;28;20217;-79
2024/01/25 09:27:13;;;;;;;0.50;0.50;;;7.20;99.90;;;;;;5076067;28;20299;-78
2024/01/25 09:29:40;;;;;;;2.67;2.58;;;7.30;99.90;;;;;;5076230;28;20198;-78
2024/01/25 09:32:08;;;;;;;0.70;0.50;;;7.40;99.90;;;;;;5076408;28;20198;-78
2024/01/25 09:34:37;;;;;;;5.95;2.95;;;7.50;99.90;;;;;;5076677;28;20218;-79
2024/01/25 09:37:05;;;;;;;1.55;1.25;;;7.50;99.90;;;;;;5076880;28;20248;-78
2024/01/25 09:39:32;;;;;;;0.50;0.50;;;7.60;99.90;;;;;;5077151;28;20611;-79
2024/01/25 09:41:59;;;;;;;1.85;0.70;;;7.80;99.90;;;;;;5077482;28;20700;-78
2024/01/25 09:44:26;;;;;;;0.60;0.60;;;7.90;99.90;;;;;;5069159;28;20559;-78
2024/01/25 09:46:53;;;;;;;2.47;2.38;;;8.00;99.90;;;;;;5077217;28;20222;-80
2024/01/25 09:49:20;;;;;;;8.48;2.58;;;8.20;99.90;;;;;;5077390;28;20198;-78
2024/01/25 09:51:51;;;;;;;1.35;0.85;;;8.20;99.90;;;;;;5078156;28;20203;-80
2024/01/25 09:54:18;;;;;;;0.65;0.65;;;8.50;99.90;;;;;;5077111;28;20604;-79
2024/01/25 09:56:45;;;;;;;3.17;1.85;;;8.70;99.90;;;;;;5079734;28;20198;-78
2024/01/25 09:59:12;;;;;;;10.77;5.82;;;8.60;99.90;;;;;;5076236;28;20713;-80
2024/01/25 10:01:39;;;;;;;5.10;3.35;;;8.50;99.90;;;;;;5076533;28;20786;-79
2024/01/25 10:04:08;;;;;;;0.90;0.60;;;8.30;99.90;;;;;;5076246;28;20680;-78
2024/01/25 10:06:35;;;;;;;0.60;0.52;;;8.20;99.90;;;;;;5076372;28;20241;-79
2024/01/25 10:09:09;;;;;;;2.35;2.15;;;8.30;99.90;;;;;;5076144;28;20203;-80
2024/01/25 10:11:37;;;;;;;6.07;1.88;;;8.30;99.90;;;;;;5070474;28;20226;-79
2024/01/25 10:14:04;;;;;;;14.30;2.55;;;8.30;99.90;;;;;;5076348;28;20230;-80
2024/01/25 10:16:31;;;;;;;3.40;2.10;;;8.40;99.90;;;;;;5078079;28;20202;-81
2024/01/25 10:18:58;;;;;;;5.53;5.07;;;8.30;99.90;;;;;;5076301;28;20199;-79
2024/01/25 10:21:27;;;;;;;6.47;2.90;;;8.10;99.90;;;;;;5076457;28;20281;-79
2024/01/25 10:23:57;;;;;;;0.93;0.93;;;8.00;99.90;;;;;;5076261;28;20209;-80
2024/01/25 10:26:28;;;;;;;0.57;0.57;;;7.90;99.90;;;;;;5075262;28;20250;-79
2024/01/25 10:28:55;;;;;;;3.55;2.80;;;7.90;99.90;;;;;;5075694;28;20285;-79
2024/01/25 10:31:25;;;;;;;1.23;1.20;;;7.90;99.90;;;;;;5072814;28;20288;-79
2024/01/25 10:33:53;;;;;;;3.88;3.00;;;7.90;99.90;;;;;;5071803;28;20206;-81
2024/01/25 10:36:22;;;;;;;1.33;0.88;;;7.90;99.90;;;;;;5078214;28;20214;-81
2024/01/25 10:38:50;;;;;;;3.42;2.80;;;7.90;99.90;;;;;;5078235;28;20260;-81
2024/01/25 10:41:19;;;;;;;1.40;1.38;;;7.80;99.90;;;;;;5077595;28;20681;-79
2024/01/25 10:43:48;;;;;;;8.57;2.90;;;7.80;99.90;;;;;;5077607;28;20251;-78
2024/01/25 10:46:15;;;;;;;5.38;2.45;;;7.90;99.90;;;;;;5074721;28;20222;-78
2024/01/25 10:48:43;;;;;;;0.50;0.40;;;8.10;99.90;;;;;;5075238;28;20215;-79
2024/01/25 10:51:11;;;;;;;0.80;0.80;;;8.40;99.90;;;;;;5074899;28;20244;-79
2024/01/25 10:53:37;;;;;;;1.35;1.30;;;8.70;99.90;;;;;;5074787;28;20202;-80
2024/01/25 10:56:06;;;;;;;1.35;1.35;;;9.10;99.90;;;;;;5075112;28;20566;-78
2024/01/25 10:58:35;;;;;;;4.22;2.95;;;9.20;99.90;;;;;;5074579;28;20193;-78
2024/01/25 11:01:04;;;;;;;3.65;3.35;;;9.40;99.90;;;;;;5074662;28;20222;-79
2024/01/25 11:03:31;;;;;;;1.83;0.70;;;9.60;99.90;;;;;;5074534;28;20286;-78
2024/01/25 11:06:08;;;;;;;4.90;4.47;;;9.80;99.90;;;;;;5073918;28;20246;-78
2024/01/25 11:08:38;;;;;;;0.50;0.50;;;9.90;99.90;;;;;;5066136;28;20472;-80
2024/01/25 11:11:08;;;;;;;0.80;0.80;;;10.00;99.90;;;;;;5074186;28;20241;-78
2024/01/25 11:13:36;;;;;;;4.57;2.25;;;10.30;99.90;;;;;;5066436;28;20244;-78
2024/01/25 11:16:15;;;;;;;3.25;1.70;;;10.40;99.90;;;;;;5086813;28;20214;-79
2024/01/25 11:18:53;;;;;;;0.60;0.60;;;10.40;99.90;;;;;;5085779;28;20258;-80
2024/01/25 11:21:26;;;;;;;1.10;1.00;;;10.40;99.90;;;;;;5091748;28;20436;-78
2024/01/25 11:24:01;;;;;;;0.80;0.80;;;10.70;99.90;;;;;;5090917;28;20920;-79
2024/01/25 11:26:28;;;;;;;9.20;0.90;;;10.70;99.90;;;;;;5086831;28;20470;-81
2024/01/25 11:28:56;;;;;;;2.00;1.90;;;10.90;99.90;;;;;;5074942;28;20522;-81
2024/01/25 11:31:24;;;;;;;2.50;2.30;;;11.00;99.90;;;;;;5073646;28;20441;-81
2024/01/25 11:33:52;;;;;;;0.60;0.50;;;10.50;99.90;;;;;;5072370;28;20484;-79
2024/01/25 11:36:22;;;;;;;3.28;1.77;;;10.10;99.90;;;;;;5077754;28;20453;-80
2024/01/25 11:38:49;;;;;;;2.45;2.35;;;10.00;99.90;;;;;;5074091;28;20570;-79
2024/01/25 11:41:16;;;;;;;0.50;0.40;;;9.90;99.90;;;;;;5071890;28;20224;-79
2024/01/25 11:43:43;;;;;;;1.23;1.23;;;10.00;99.90;;;;;;5074597;28;20491;-80
2024/01/25 11:46:11;;;;;;;11.67;6.80;;;10.00;99.90;;;;;;5073949;28;20468;-79
2024/01/25 11:48:42;;;;;;;7.93;2.40;;;10.30;99.90;;;;;;5064887;28;20510;-80
2024/01/25 11:51:11;;;;;;;2.30;1.60;;;10.40;99.90;;;;;;5075254;28;20437;-78
2024/01/25 11:53:38;;;;;;;0.50;0.50;;;10.40;99.90;;;;;;5074316;28;20440;-79
2024/01/25 11:56:08;;;;;;;3.03;2.07;;;10.30;99.90;;;;;;5073732;28;20456;-78
2024/01/25 11:58:35;;;;;;;5.15;2.75;;;10.10;99.90;;;;;;5074061;28;20480;-79
2024/01/25 12:01:05;;;;;;;1.67;0.50;;;9.80;99.90;;;;;;5074752;28;20251;-79
2024/01/25 12:03:33;;;;;;;1.92;1.05;;;9.60;99.90;;;;;;5073791;28;20823;-80
2024/01/25 12:06:01;;;;;;;21.42;4.28;;;9.50;99.90;;;;;;5073991;28;20581;-79
2024/01/25 12:08:28;;;;;;;0.50;0.40;;;9.40;99.90;;;;;;5073249;28;20279;-79
2024/01/25 12:11:07;;;;;;;0.67;0.67;;;9.30;99.90;;;;;;5074012;28;20228;-80
2024/01/25 12:13:40;;;;;;;0.65;0.63;;;9.20;99.90;;;;;;5076293;28;20528;-78
2024/01/25 12:16:09;;;;;;;1.17;1.13;;;9.20;99.90;;;;;;5074536;28;20225;-79
2024/01/25 12:18:37;;;;;;;1.33;0.98;;;9.20;99.90;;;;;;5075011;28;20221;-79
2024/01/25 12:21:06;;;;;;;3.40;2.90;;;9.30;99.90;;;;;;5074860;28;20194;-78
2024/01/25 12:23:34;;;;;;;1.10;0.80;;;9.10;99.90;;;;;;5076228;28;20203;-79
2024/01/25 12:26:02;;;;;;;0.50;0.40;;;9.10;99.90;;;;;;5076115;28;20268;-80
2024/01/25 12:28:32;;;;;;;1.17;1.08;;;9.00;99.90;;;;;;5075200;28;20249;-79
2024/01/25 12:30:59;;;;;;;4.90;2.33;;;9.00;99.90;;;;;;5073498;28;20196;-80
2024/01/25 12:33:26;;;;;;;1.48;1.38;;;9.10;99.90;;;;;;5073054;28;20199;-81
2024/01/25 12:35:54;;;;;;;1.48;1.38;;;9.10;99.90;;;;;;5077272;28;20218;-80
2024/01/25 12:38:23;;;;;;;20.90;4.72;;;9.10;99.90;;;;;;5075545;28;20218;-78
2024/01/25 12:40:51;;;;;;;10.00;2.75;;;8.90;99.90;;;;;;5076883;28;20206;-80
2024/01/25 12:43:18;;;;;;;0.60;0.50;;;8.90;99.90;;;;;;5075995;28;20190;-77
2024/01/25 12:45:46;;;;;;;2.05;1.58;;;8.90;99.90;;;;;;5076224;28;20280;-78
2024/01/25 12:48:13;;;;;;;2.00;1.38;;;8.90;99.90;;;;;;5075251;28;20621;-76
2024/01/25 12:50:40;;;;;;;9.30;1.95;;;8.90;99.90;;;;;;5074411;28;20208;-80
2024/01/25 12:53:07;;;;;;;1.05;1.05;;;8.90;99.90;;;;;;5074242;28;20645;-80
2024/01/25 12:55:35;;;;;;;6.93;3.72;;;8.90;99.90;;;;;;5073957;28;20260;-79
2024/01/25 12:58:03;;;;;;;6.47;3.22;;;9.00;99.90;;;;;;5074638;28;20198;-81